• Join FlightAware (Why Join?)
  • Login
  • US Flag 
01:49AM EDT


 

Airport Tracker/Info


-or-


 

Live Flight TrackerFlight Track Log ✈ N102VU ✈ 06-Jun-2013 ✈ TN35 - KTHA

Flight Track Log - Related Links

Times and Time Zones

All times are in EDT time to prevent confusion due to time zone crossing. See the N102VU flight status page for this flight to view local times or setup timezone preferences in your user account.

Time Position Orientation Groundspeed Altitude Reporting Facility
EDT Latitude Longitude Course Direction KTS MPH feet Rate Location/Type
12:13PM 36.1333 -86.8000 185° South 17 20 900  Level Nashville TRACON
12:13PM 36.1283 -86.8006 185° South 120 138 1,200 360 Climbing Memphis Center
12:14PM 36.1092 -86.7886 153° Southeast 95 109 1,500 300 Climbing Memphis Center
12:16PM 36.0708 -86.7567 146° Southeast 85 98 2,200 360 Climbing Memphis Center
12:17PM 36.0494 -86.7397 147° Southeast 90 104 2,600 360 Climbing Memphis Center
12:18PM 36.0239 -86.7203 148° Southeast 96 110 3,000 180 Climbing Memphis Center
12:19PM 35.9961 -86.6986 148° Southeast 101 116 3,000  Level Memphis Center
12:20PM 35.9706 -86.6767 145° Southeast 107 123 3,100 300 Climbing Memphis Center
12:21PM 35.9450 -86.6572 148° Southeast 112 129 3,600 420 Climbing Memphis Center
12:22PM 35.9172 -86.6381 151° Southeast 112 129 4,000 180 Climbing Memphis Center
12:23PM 35.8872 -86.6136 147° Southeast 118 136 4,000  Level Memphis Center
12:24PM 35.8572 -86.5894 147° Southeast 123 142 4,000  Level Memphis Center
12:25PM 35.8294 -86.5650 144° Southeast 134 154 4,000  Level Memphis Center
12:26PM 35.7997 -86.5433 149° Southeast 129 148 4,000  Level Memphis Center
12:27PM 35.7697 -86.5192 147° Southeast 129 148 4,000  Level Memphis Center
12:28PM 35.7397 -86.4950 147° Southeast 129 148 4,000 -60 Level Memphis Center
12:29PM 35.7100 -86.4761 153° Southeast 123 142 3,900 -60 Descending Memphis Center
12:30PM 35.6800 -86.4494 144° Southeast 123 142 3,900  Level Memphis Center
12:31PM 35.6500 -86.4278 150° Southeast 123 142 3,900  Level Memphis Center
12:32PM 35.6200 -86.4036 147° Southeast 123 142 4,000 -120 Climbing Memphis Center
12:33PM 35.5983 -86.3792 137° Southeast 123 142 3,700 -420 Descending Memphis Center
12:34PM 35.5867 -86.3339 108° East 123 142 3,200 -420 Descending Memphis Center
12:35PM 35.5747 -86.2908 109° East 129 148 2,900 -180 Descending Memphis Center
12:36PM 35.5631 -86.2558 112° Southeast 123 142 2,900 -180 Level Memphis Center
12:37PM 35.5336 -86.2469 166° South 103 119 2,600 -300 Descending Memphis Center
12:38PM 35.4981 -86.2411 172° South 113 130 2,400 -120 Descending Memphis Center
12:39PM 35.4667 -86.2403 179° South 107 123 2,400  Level Memphis Center